Port Acres, Texas
Current Conditions -  °F | °C
As of 8:53 PM on Monday 22 Dec 2014 (Local Time) from KBPT Reporting Station
Broken Clouds Broken Clouds  
Wind Chill: 63°   Ceiling: 800
Heat Index: 63°   Visibility: 8mi
Dew Point: 61°   Wind: 7mph
Humidity: 93%   Direction: 200°SSW
Pressure: 29.66"   Gusts: NA
Location:  29.7569°N, 94.1898°W
Report Text: KBPT 230253Z 20006KT 8SM BKN008 17/16 A2966 RMK AO2 CIG 005V012 SLP042 T01720161 50006
Loading
Personal Weather Stations






























Interactive Weather Map New forecast layout! Learn more

10-Day Weather Forecast

Advertisements
Track Severe Weather on mobile